Time;durP1;ratioP1;P1;durP2;ratioP2;P2;SDS_P1;SDS_P2;PMS_P1;PMS_P2;Temp;Humidity;BMP_temperature;BMP_pressure;BME280_temperature;BME280_humidity;BME280_pressure;Samples;Min_cycle;Max_cycle;Signal;HPM_P1;HPM_P2
2022/06/19 00:01:03;;;;;;;0.77;0.68;;;24.50;95.10;;;;;;4301158;33;20119;-65
2022/06/19 00:03:34;;;;;;;1.30;0.98;;;24.50;95.30;;;;;;4302470;33;20089;-65
2022/06/19 00:06:01;;;;;;;0.65;0.65;;;24.50;95.40;;;;;;4303224;33;21285;-65
2022/06/19 00:08:28;;;;;;;3.75;1.85;;;24.50;95.50;;;;;;4304419;33;20148;-66
2022/06/19 00:10:53;;;;;;;4.90;0.73;;;24.30;95.70;;;;;;4301077;33;20071;-66
2022/06/19 00:13:19;;;;;;;7.35;1.12;;;24.30;95.90;;;;;;4304708;33;20133;-66
2022/06/19 00:15:44;;;;;;;0.62;0.50;;;24.20;96.00;;;;;;4301375;33;20163;-65
2022/06/19 00:18:10;;;;;;;2.25;0.98;;;24.10;96.50;;;;;;4300568;33;20072;-65
2022/06/19 00:20:36;;;;;;;0.60;0.60;;;24.00;96.60;;;;;;4298718;33;20084;-65
2022/06/19 00:23:01;;;;;;;0.60;0.57;;;24.10;96.50;;;;;;4280126;33;20545;-65
2022/06/19 00:25:27;;;;;;;0.90;0.82;;;24.20;96.50;;;;;;4303097;33;20108;-65
2022/06/19 00:27:53;;;;;;;1.70;0.93;;;24.00;96.70;;;;;;4301698;33;20427;-65
2022/06/19 00:30:18;;;;;;;0.73;0.70;;;23.90;97.00;;;;;;4300986;33;20068;-65
2022/06/19 00:32:44;;;;;;;0.32;0.32;;;23.80;97.20;;;;;;4302522;33;20079;-65
2022/06/19 00:35:10;;;;;;;0.47;0.47;;;23.80;97.30;;;;;;4301513;33;20181;-65
2022/06/19 00:37:35;;;;;;;0.40;0.40;;;23.70;97.60;;;;;;4302446;33;20130;-65
2022/06/19 00:40:03;;;;;;;2.35;1.27;;;23.70;97.70;;;;;;4303340;33;20091;-65
2022/06/19 00:42:29;;;;;;;0.55;0.50;;;23.70;97.80;;;;;;4302792;33;20072;-65
2022/06/19 00:44:54;;;;;;;1.27;0.57;;;23.80;97.50;;;;;;4300981;33;20423;-66
2022/06/19 00:47:24;;;;;;;1.40;1.10;;;23.80;97.60;;;;;;4301950;33;20419;-66
2022/06/19 00:49:56;;;;;;;0.52;0.52;;;23.80;97.70;;;;;;4302703;33;20099;-66
2022/06/19 00:52:26;;;;;;;2.50;0.70;;;23.80;97.60;;;;;;4281659;33;20139;-66
2022/06/19 00:55:00;;;;;;;0.50;0.50;;;23.70;97.80;;;;;;4297150;33;20079;-65
2022/06/19 00:57:28;;;;;;;0.57;0.57;;;23.60;98.00;;;;;;4302950;33;20061;-65
2022/06/19 01:00:02;;;;;;;1.23;0.85;;;23.60;98.30;;;;;;4301378;33;20139;-65
2022/06/19 01:02:28;;;;;;;0.82;0.77;;;23.50;98.20;;;;;;4303764;33;20092;-65
2022/06/19 01:04:55;;;;;;;0.35;0.35;;;23.50;98.20;;;;;;4302718;33;20100;-65
2022/06/19 01:07:23;;;;;;;13.38;0.60;;;23.60;98.20;;;;;;4303470;33;20451;-65
2022/06/19 01:09:50;;;;;;;0.60;0.60;;;23.60;98.10;;;;;;4303204;33;20087;-65
2022/06/19 01:12:17;;;;;;;2.08;1.17;;;23.70;98.10;;;;;;4301320;33;20481;-65
2022/06/19 01:14:44;;;;;;;0.90;0.62;;;23.50;98.30;;;;;;4301971;33;20099;-65
2022/06/19 01:17:12;;;;;;;0.77;0.77;;;23.50;98.40;;;;;;4300483;33;20520;-65
2022/06/19 01:19:41;;;;;;;1.42;0.57;;;23.50;98.30;;;;;;4300828;33;20080;-65
2022/06/19 01:22:26;;;;;;;0.45;0.45;;;23.40;98.60;;;;;;4278283;33;20584;-65
2022/06/19 01:25:13;;;;;;;0.55;0.50;;;23.40;98.70;;;;;;4297533;33;20591;-65
2022/06/19 01:28:45;;;;;;;0.50;0.50;;;23.40;98.90;;;;;;4301195;33;20084;-65
2022/06/19 01:30:31;;;;;;;1.10;1.00;;;23.40;99.10;;;;;;4295531;33;103509;-65
2022/06/19 01:32:59;;;;;;;0.50;0.50;;;23.30;99.30;;;;;;4300345;33;20536;-65
2022/06/19 01:35:29;;;;;;;0.68;0.68;;;23.20;99.40;;;;;;4300489;33;20132;-65
2022/06/19 01:37:56;;;;;;;0.35;0.35;;;23.20;99.60;;;;;;4303317;33;20163;-65
2022/06/19 01:40:27;;;;;;;0.32;0.32;;;23.20;99.70;;;;;;4300781;33;20079;-65
2022/06/19 01:42:54;;;;;;;1.85;0.60;;;23.10;99.90;;;;;;4301327;33;20600;-65
2022/06/19 01:45:20;;;;;;;0.52;0.52;;;23.10;99.90;;;;;;4300803;33;20135;-65
2022/06/19 01:47:46;;;;;;;0.60;0.60;;;23.10;99.90;;;;;;4300743;33;20127;-65
2022/06/19 01:50:16;;;;;;;3.55;0.62;;;23.10;99.90;;;;;;4298645;33;20125;-65
2022/06/19 01:52:42;;;;;;;0.50;0.50;;;23.10;99.90;;;;;;4275482;33;20529;-65
2022/06/19 01:55:13;;;;;;;1.98;1.17;;;23.10;99.90;;;;;;4298134;33;20427;-65
2022/06/19 01:57:40;;;;;;;;;;;23.10;99.90;;;;;;4301015;33;20057;-65
2022/06/19 02:00:10;;;;;;;0.43;0.43;;;23.10;99.90;;;;;;4299974;33;20392;-65
2022/06/19 02:02:37;;;;;;;2.50;1.02;;;23.10;99.90;;;;;;4298688;33;20084;-65
2022/06/19 02:05:03;;;;;;;12.00;0.60;;;23.00;99.90;;;;;;4300290;33;20112;-65
2022/06/19 02:07:30;;;;;;;0.52;0.52;;;23.00;99.90;;;;;;4301325;33;20088;-65
2022/06/19 02:09:56;;;;;;;0.50;0.50;;;23.00;99.90;;;;;;4300282;33;20052;-65
2022/06/19 02:12:23;;;;;;;0.50;0.50;;;23.00;99.90;;;;;;4305301;33;20604;-65
2022/06/19 02:14:50;;;;;;;0.37;0.37;;;23.00;99.90;;;;;;4303004;33;20123;-65
2022/06/19 02:17:25;;;;;;;35.58;0.80;;;23.00;99.90;;;;;;4304641;33;20104;-65
2022/06/19 02:19:51;;;;;;;0.52;0.47;;;23.00;99.90;;;;;;4304426;33;20085;-65
2022/06/19 02:22:17;;;;;;;2.90;1.15;;;23.00;99.90;;;;;;4284667;33;20156;-65
2022/06/19 02:24:43;;;;;;;0.98;0.88;;;23.00;99.90;;;;;;4296499;33;20095;-63
2022/06/19 02:27:09;;;;;;;0.32;0.32;;;22.90;99.90;;;;;;4300506;33;20084;-63
2022/06/19 02:29:38;;;;;;;9.15;2.00;;;22.90;99.90;;;;;;4306119;33;20136;-63
2022/06/19 02:32:04;;;;;;;1.02;0.95;;;22.80;99.90;;;;;;4302504;33;21873;-64
2022/06/19 02:34:36;;;;;;;1.10;0.75;;;22.80;99.90;;;;;;4303264;33;20093;-64
2022/06/19 02:37:05;;;;;;;0.90;0.82;;;22.80;99.90;;;;;;4302394;33;20072;-64
2022/06/19 02:39:42;;;;;;;2.37;1.10;;;22.80;99.90;;;;;;4307642;33;20085;-64
2022/06/19 02:42:35;;;;;;;0.77;0.62;;;22.80;99.90;;;;;;4303473;33;20355;-64
2022/06/19 02:45:06;;;;;;;0.50;0.50;;;22.70;99.90;;;;;;4302467;33;20437;-64
2022/06/19 02:47:34;;;;;;;0.50;0.50;;;22.60;99.90;;;;;;4303341;33;20076;-64
2022/06/19 02:50:00;;;;;;;1.02;0.90;;;22.70;99.90;;;;;;4305574;33;20091;-64
2022/06/19 02:52:26;;;;;;;0.77;0.37;;;22.70;99.90;;;;;;4282670;33;20451;-64
2022/06/19 02:54:52;;;;;;;0.50;0.50;;;22.70;99.90;;;;;;4298514;33;20104;-65
2022/06/19 02:57:18;;;;;;;4.43;1.60;;;22.60;99.90;;;;;;4305422;33;20108;-64
2022/06/19 02:59:43;;;;;;;1.50;0.88;;;22.50;99.90;;;;;;4304093;33;20100;-64
2022/06/19 03:02:12;;;;;;;0.75;0.62;;;22.50;99.90;;;;;;4303724;33;20073;-64
2022/06/19 03:04:44;;;;;;;4.68;1.48;;;22.50;99.90;;;;;;4303435;33;20104;-64
2022/06/19 03:07:09;;;;;;;1.08;0.80;;;22.50;99.90;;;;;;4304401;33;20220;-64
2022/06/19 03:09:35;;;;;;;0.30;0.30;;;22.50;99.90;;;;;;4305186;33;20067;-65
2022/06/19 03:12:01;;;;;;;0.93;0.70;;;22.50;99.90;;;;;;4305277;33;20068;-64
2022/06/19 03:14:27;;;;;;;0.73;0.73;;;22.50;99.90;;;;;;4302876;33;20068;-64
2022/06/19 03:16:52;;;;;;;0.57;0.57;;;22.50;99.90;;;;;;4302663;33;20100;-65
2022/06/19 03:19:18;;;;;;;1.55;0.73;;;22.50;99.90;;;;;;4304718;33;20140;-64
2022/06/19 03:21:44;;;;;;;1.55;1.10;;;22.40;99.90;;;;;;4290750;33;20100;-64
2022/06/19 03:24:10;;;;;;;4.45;0.80;;;22.40;99.90;;;;;;4291608;33;20131;-64
2022/06/19 03:26:36;;;;;;;2.78;0.43;;;22.30;99.90;;;;;;4304852;33;21130;-64
2022/06/19 03:29:02;;;;;;;1.48;0.65;;;22.40;99.90;;;;;;4301836;33;20088;-64
2022/06/19 03:31:29;;;;;;;0.60;0.60;;;22.30;99.90;;;;;;4302562;33;20064;-64
2022/06/19 03:33:55;;;;;;;1.75;1.00;;;22.30;99.90;;;;;;4303327;33;20105;-64
2022/06/19 03:36:21;;;;;;;1.98;1.27;;;22.30;99.90;;;;;;4304525;33;20103;-64
2022/06/19 03:38:47;;;;;;;0.32;0.32;;;22.40;99.90;;;;;;4303739;33;20072;-64
2022/06/19 03:41:14;;;;;;;0.68;0.68;;;22.40;99.90;;;;;;4303795;33;20084;-64
2022/06/19 03:43:40;;;;;;;2.97;0.88;;;22.30;99.90;;;;;;4302431;33;20088;-64
2022/06/19 03:46:12;;;;;;;0.60;0.60;;;22.30;99.90;;;;;;4302287;33;20083;-64
2022/06/19 03:48:40;;;;;;;0.85;0.85;;;22.20;99.90;;;;;;4304813;33;20520;-64
2022/06/19 03:51:06;;;;;;;1.17;0.90;;;22.20;99.90;;;;;;4296733;33;20180;-64
2022/06/19 03:53:31;;;;;;;0.50;0.50;;;22.20;99.90;;;;;;4285052;33;20084;-64
2022/06/19 03:55:57;;;;;;;1.40;0.73;;;22.30;99.90;;;;;;4304679;33;20059;-64
2022/06/19 03:58:22;;;;;;;0.65;0.65;;;22.40;99.90;;;;;;4302914;33;20087;-64
2022/06/19 04:00:48;;;;;;;0.40;0.40;;;22.40;99.90;;;;;;4305187;33;20144;-64
2022/06/19 04:03:13;;;;;;;1.05;0.75;;;22.40;99.90;;;;;;4302987;33;20475;-64
2022/06/19 04:05:39;;;;;;;1.73;1.00;;;22.30;99.90;;;;;;4304620;33;20125;-64
2022/06/19 04:08:04;;;;;;;1.12;0.85;;;22.30;99.90;;;;;;4304212;33;20088;-64
2022/06/19 04:10:30;;;;;;;0.47;0.47;;;22.30;99.90;;;;;;4303446;33;20067;-64
2022/06/19 04:12:55;;;;;;;0.32;0.32;;;22.30;99.90;;;;;;4304192;33;20100;-64
2022/06/19 04:15:21;;;;;;;6.55;1.02;;;22.40;99.90;;;;;;4303183;33;20068;-64
2022/06/19 04:17:47;;;;;;;0.50;0.50;;;22.50;99.90;;;;;;4302447;33;20089;-64
2022/06/19 04:20:12;;;;;;;1.37;0.77;;;22.50;99.90;;;;;;4302375;33;20077;-64
2022/06/19 04:22:39;;;;;;;1.17;0.73;;;22.50;99.90;;;;;;4278449;33;20089;-64
2022/06/19 04:25:07;;;;;;;1.17;0.77;;;22.50;99.90;;;;;;4300441;33;20068;-64
2022/06/19 04:27:34;;;;;;;1.02;0.75;;;22.60;99.90;;;;;;4301408;33;20143;-64
2022/06/19 04:30:00;;;;;;;0.30;0.30;;;22.60;99.90;;;;;;4303612;33;20095;-64
2022/06/19 04:32:26;;;;;;;0.40;0.40;;;22.60;99.90;;;;;;4301316;33;20493;-65
2022/06/19 04:34:51;;;;;;;0.65;0.55;;;22.70;99.90;;;;;;4304249;33;20083;-65
2022/06/19 04:37:16;;;;;;;0.80;0.80;;;22.80;99.90;;;;;;4303700;33;20473;-65
2022/06/19 04:39:42;;;;;;;1.50;1.17;;;22.90;99.90;;;;;;4302312;33;20072;-65
2022/06/19 04:42:08;;;;;;;0.70;0.70;;;23.00;99.90;;;;;;4302644;33;20209;-64
2022/06/19 04:44:34;;;;;;;1.08;0.75;;;23.10;99.90;;;;;;4299183;33;20161;-64
2022/06/19 04:46:59;;;;;;;1.40;0.95;;;23.00;99.90;;;;;;4302903;33;20064;-64
2022/06/19 04:49:25;;;;;;;0.50;0.50;;;23.10;99.90;;;;;;4302958;33;20105;-64
2022/06/19 04:51:50;;;;;;;1.77;1.15;;;23.10;99.90;;;;;;4287328;33;20162;-64
2022/06/19 04:54:15;;;;;;;0.88;0.73;;;23.10;99.90;;;;;;4290610;33;20543;-64
2022/06/19 04:56:42;;;;;;;1.40;1.17;;;23.10;99.90;;;;;;4302658;33;20072;-64
2022/06/19 04:59:08;;;;;;;0.50;0.50;;;23.00;99.90;;;;;;4302767;33;20069;-64
2022/06/19 05:01:37;;;;;;;0.65;0.65;;;23.00;99.90;;;;;;4302652;33;20056;-64
2022/06/19 05:04:08;;;;;;;0.88;0.70;;;23.10;99.90;;;;;;4303455;33;20513;-65
2022/06/19 05:06:34;;;;;;;2.37;0.93;;;23.00;99.90;;;;;;4304489;33;20171;-65
2022/06/19 05:08:59;;;;;;;1.48;1.20;;;23.00;99.90;;;;;;4304292;33;20060;-65
2022/06/19 05:11:27;;;;;;;2.95;1.62;;;23.10;99.90;;;;;;4302211;33;20124;-65
2022/06/19 05:13:53;;;;;;;3.60;2.15;;;23.10;99.90;;;;;;4303735;33;20096;-64
2022/06/19 05:16:22;;;;;;;0.55;0.55;;;23.20;99.90;;;;;;4303876;33;20084;-64
2022/06/19 05:18:49;;;;;;;2.95;1.33;;;23.30;99.90;;;;;;4301318;33;20082;-64
2022/06/19 05:21:16;;;;;;;0.65;0.62;;;23.30;99.90;;;;;;4292168;33;20052;-65
2022/06/19 05:23:44;;;;;;;0.65;0.65;;;23.40;99.90;;;;;;4285769;33;20088;-64
2022/06/19 05:26:20;;;;;;;4.55;2.17;;;23.30;99.90;;;;;;4304421;33;20541;-64
2022/06/19 05:28:48;;;;;;;4.05;1.33;;;23.40;99.90;;;;;;4302230;33;20088;-64
2022/06/19 05:31:13;;;;;;;0.50;0.50;;;23.30;99.90;;;;;;4302427;33;20131;-64
2022/06/19 05:33:39;;;;;;;3.37;1.45;;;23.40;99.90;;;;;;4299005;33;20128;-64
2022/06/19 05:36:04;;;;;;;2.08;0.88;;;23.50;99.90;;;;;;4303577;33;20584;-64
2022/06/19 05:38:30;;;;;;;1.00;0.90;;;23.60;99.90;;;;;;4303113;33;20126;-64
2022/06/19 05:40:58;;;;;;;0.82;0.62;;;23.70;99.90;;;;;;4300168;33;20060;-64
2022/06/19 05:43:25;;;;;;;0.98;0.82;;;23.70;99.90;;;;;;4301403;33;20092;-65
2022/06/19 05:45:53;;;;;;;2.83;0.95;;;23.80;99.90;;;;;;4301916;33;20107;-64
2022/06/19 05:48:19;;;;;;;1.95;1.30;;;23.90;99.90;;;;;;4305722;33;20087;-64
2022/06/19 05:50:45;;;;;;;0.90;0.90;;;23.90;99.90;;;;;;4299310;33;20607;-64
2022/06/19 05:53:11;;;;;;;0.62;0.62;;;24.10;99.90;;;;;;4283867;33;20096;-64
2022/06/19 05:55:37;;;;;;;3.78;1.92;;;24.20;99.90;;;;;;4303921;33;20634;-65
2022/06/19 05:58:02;;;;;;;0.77;0.77;;;24.20;99.80;;;;;;4305379;33;20091;-65
2022/06/19 06:00:28;;;;;;;1.60;1.23;;;24.30;99.70;;;;;;4305507;33;20165;-65
2022/06/19 06:02:53;;;;;;;1.15;0.93;;;24.40;99.60;;;;;;4302491;33;20077;-66
2022/06/19 06:05:19;;;;;;;7.75;1.67;;;24.50;99.20;;;;;;4305107;33;20938;-65
2022/06/19 06:07:44;;;;;;;1.05;0.77;;;24.50;99.10;;;;;;4304540;33;20068;-66
2022/06/19 06:10:11;;;;;;;1.17;1.08;;;24.60;98.70;;;;;;4305538;33;20167;-66
2022/06/19 06:12:36;;;;;;;9.75;2.87;;;24.70;98.40;;;;;;4302031;33;20442;-66
2022/06/19 06:15:02;;;;;;;0.65;0.60;;;24.80;98.10;;;;;;4303034;33;20150;-66
2022/06/19 06:17:27;;;;;;;0.85;0.82;;;24.90;97.80;;;;;;4303009;33;20448;-66
2022/06/19 06:19:53;;;;;;;1.15;1.05;;;25.00;97.60;;;;;;4304449;33;20077;-66
2022/06/19 06:22:19;;;;;;;7.37;2.17;;;25.10;97.00;;;;;;4282425;33;20116;-66
2022/06/19 06:24:44;;;;;;;2.60;1.87;;;25.10;96.70;;;;;;4299502;33;20064;-66
2022/06/19 06:27:09;;;;;;;4.28;0.68;;;25.20;96.60;;;;;;4302884;33;20079;-66
2022/06/19 06:29:35;;;;;;;0.73;0.73;;;25.30;96.70;;;;;;4304199;33;20080;-66
2022/06/19 06:32:01;;;;;;;1.23;1.12;;;25.40;96.90;;;;;;4300622;33;20477;-66
2022/06/19 06:34:26;;;;;;;1.55;1.10;;;25.40;96.70;;;;;;4303103;33;20072;-66
2022/06/19 06:36:52;;;;;;;1.37;1.08;;;25.50;96.70;;;;;;4304953;33;20071;-66
2022/06/19 06:39:17;;;;;;;1.10;0.95;;;25.60;96.60;;;;;;4306156;33;20583;-65
2022/06/19 06:41:43;;;;;;;0.98;0.88;;;25.70;96.30;;;;;;4302866;33;20080;-65
2022/06/19 06:44:13;;;;;;;0.73;0.70;;;25.80;96.10;;;;;;4303028;33;20099;-65
2022/06/19 06:46:38;;;;;;;3.17;1.55;;;25.90;95.80;;;;;;4304347;33;20191;-64
2022/06/19 06:49:04;;;;;;;1.12;0.75;;;26.00;95.70;;;;;;4303994;33;20426;-64
2022/06/19 06:51:31;;;;;;;4.95;1.15;;;26.10;95.20;;;;;;4291284;33;21270;-64
2022/06/19 06:53:58;;;;;;;13.25;1.42;;;26.20;94.70;;;;;;4290578;33;20088;-64
2022/06/19 06:56:24;;;;;;;0.98;0.80;;;26.30;94.40;;;;;;4304028;33;20127;-65
2022/06/19 06:58:50;;;;;;;10.27;1.37;;;26.40;94.10;;;;;;4305299;33;20132;-65
2022/06/19 07:01:18;;;;;;;0.95;0.77;;;26.50;93.70;;;;;;4302132;33;20071;-65
2022/06/19 07:03:46;;;;;;;0.50;0.50;;;26.60;93.00;;;;;;4305468;33;20092;-64
2022/06/19 07:06:12;;;;;;;0.52;0.50;;;26.70;93.00;;;;;;4303176;33;20097;-64
2022/06/19 07:08:38;;;;;;;3.80;1.55;;;26.90;92.40;;;;;;4303515;33;20600;-64
2022/06/19 07:11:04;;;;;;;5.03;1.15;;;27.00;92.00;;;;;;4303174;33;20755;-64
2022/06/19 07:13:30;;;;;;;3.78;1.58;;;27.10;91.90;;;;;;4304393;33;20068;-64
2022/06/19 07:15:55;;;;;;;0.80;0.77;;;27.20;91.70;;;;;;4303029;33;20091;-64
2022/06/19 07:18:21;;;;;;;0.95;0.40;;;27.30;91.70;;;;;;4304311;33;20533;-64
2022/06/19 07:20:46;;;;;;;5.47;2.15;;;27.40;91.30;;;;;;4299825;33;20084;-64
2022/06/19 07:23:12;;;;;;;0.93;0.85;;;27.60;91.30;;;;;;4280011;33;20084;-65
2022/06/19 07:25:38;;;;;;;1.35;1.15;;;27.70;91.20;;;;;;4303067;33;20060;-65
2022/06/19 07:28:03;;;;;;;0.62;0.62;;;27.80;91.10;;;;;;4301504;33;20581;-65
2022/06/19 07:30:29;;;;;;;1.95;1.23;;;27.90;90.70;;;;;;4301684;33;20088;-65
2022/06/19 07:32:55;;;;;;;0.82;0.82;;;28.10;90.70;;;;;;4301283;33;20060;-65
2022/06/19 07:35:22;;;;;;;0.73;0.73;;;28.20;89.80;;;;;;4305354;33;20067;-65
2022/06/19 07:37:48;;;;;;;1.27;0.98;;;28.30;88.40;;;;;;4301125;33;20091;-65
2022/06/19 07:40:17;;;;;;;1.75;1.27;;;28.50;88.50;;;;;;4303956;33;20124;-65
2022/06/19 07:42:43;;;;;;;16.85;1.00;;;28.70;87.60;;;;;;4303072;33;20064;-65
2022/06/19 07:45:10;;;;;;;2.12;1.15;;;28.80;87.10;;;;;;4301429;33;20458;-65
2022/06/19 07:50:21;;;;;;;1.55;0.68;;;29.10;87.00;;;;;;4300055;33;20196;-65
2022/06/19 07:52:49;;;;;;;2.20;0.90;;;29.30;83.20;;;;;;4278341;33;20166;-65
2022/06/19 07:55:18;;;;;;;0.52;0.52;;;29.50;82.90;;;;;;4298539;33;20101;-65
2022/06/19 07:57:44;;;;;;;3.92;2.03;;;29.70;81.90;;;;;;4301140;33;21229;-65
2022/06/19 08:00:16;;;;;;;1.05;0.82;;;29.80;81.70;;;;;;4304827;33;20169;-65
2022/06/19 08:02:44;;;;;;;2.83;1.58;;;30.00;80.90;;;;;;4299684;33;20072;-65
2022/06/19 08:05:11;;;;;;;3.47;1.05;;;30.10;81.00;;;;;;4302695;33;20095;-65
2022/06/19 08:07:38;;;;;;;3.08;1.45;;;30.20;78.60;;;;;;4302558;33;20099;-65
2022/06/19 08:10:05;;;;;;;1.65;1.48;;;30.30;77.70;;;;;;4303807;33;20092;-65
2022/06/19 08:12:30;;;;;;;1.83;0.60;;;30.50;77.40;;;;;;4303736;33;20513;-65
2022/06/19 08:14:55;;;;;;;6.72;1.27;;;30.60;76.90;;;;;;4302239;33;20100;-65
2022/06/19 08:17:22;;;;;;;4.12;1.55;;;30.60;76.90;;;;;;4301943;33;20072;-65
2022/06/19 08:19:47;;;;;;;1.08;0.77;;;30.70;76.70;;;;;;4304688;33;20080;-65
2022/06/19 08:22:12;;;;;;;2.80;0.55;;;30.80;76.80;;;;;;4280962;33;20459;-65
2022/06/19 08:24:38;;;;;;;2.28;1.67;;;30.90;76.00;;;;;;4296074;33;20119;-64
2022/06/19 08:27:04;;;;;;;0.90;0.70;;;31.00;74.80;;;;;;4303170;33;20559;-64
2022/06/19 08:29:31;;;;;;;1.37;1.12;;;31.10;74.20;;;;;;4303554;33;20119;-64
2022/06/19 08:31:56;;;;;;;1.65;1.12;;;31.20;74.40;;;;;;4301990;33;20423;-64
2022/06/19 08:34:21;;;;;;;2.55;1.30;;;31.20;74.30;;;;;;4304481;33;20172;-65
2022/06/19 08:36:48;;;;;;;4.03;0.90;;;31.30;72.00;;;;;;4302829;33;20088;-65
2022/06/19 08:39:16;;;;;;;1.75;0.80;;;31.40;72.10;;;;;;4303727;33;20169;-65
2022/06/19 08:42:00;;;;;;;4.05;1.25;;;31.50;71.80;;;;;;4301636;33;20068;-64
2022/06/19 08:44:50;;;;;;;8.40;2.10;;;31.70;71.50;;;;;;4302137;33;20075;-65
2022/06/19 08:47:31;;;;;;;6.45;1.25;;;31.70;70.40;;;;;;4299873;33;20458;-65
2022/06/19 08:50:37;;;;;;;1.17;0.88;;;31.70;70.50;;;;;;4302773;33;20064;-65
2022/06/19 08:53:26;;;;;;;2.42;1.37;;;31.80;70.80;;;;;;4271651;33;20108;-65
2022/06/19 08:56:01;;;;;;;1.15;1.02;;;31.90;70.00;;;;;;4301682;33;20359;-65
2022/06/19 08:58:51;;;;;;;6.22;2.50;;;32.00;70.10;;;;;;4300976;33;20084;-65
2022/06/19 09:01:37;;;;;;;1.60;1.10;;;32.00;69.60;;;;;;4300130;33;20067;-65
2022/06/19 09:05:46;;;;;;;4.93;2.30;;;32.20;68.50;;;;;;4303352;33;20162;-64
2022/06/19 09:07:46;;;;;;;3.35;1.83;;;32.30;66.80;;;;;;4300124;33;20109;-65
2022/06/19 09:10:23;;;;;;;9.25;1.27;;;32.40;66.50;;;;;;4296092;33;20417;-65
2022/06/19 09:13:07;;;;;;;10.18;3.37;;;32.40;65.60;;;;;;4301361;33;20438;-65
2022/06/19 09:15:41;;;;;;;1.52;0.88;;;32.50;65.60;;;;;;4300798;33;20084;-65
2022/06/19 09:18:19;;;;;;;3.53;2.33;;;32.60;64.70;;;;;;4302749;33;20542;-65
2022/06/19 09:20:51;;;;;;;3.42;2.05;;;32.80;64.60;;;;;;4296228;33;20096;-65
2022/06/19 09:23:38;;;;;;;3.20;2.33;;;32.80;64.00;;;;;;4279757;33;20117;-65
2022/06/19 09:26:20;;;;;;;2.72;1.73;;;33.00;63.70;;;;;;4298745;33;20080;-65
2022/06/19 09:28:52;;;;;;;6.82;1.37;;;33.10;63.00;;;;;;4301691;33;20441;-65
2022/06/19 09:31:28;;;;;;;1.17;0.98;;;33.00;62.70;;;;;;4302356;33;20088;-65
2022/06/19 09:34:20;;;;;;;0.77;0.77;;;33.00;62.70;;;;;;4301220;33;20072;-64
2022/06/19 09:36:54;;;;;;;2.42;1.75;;;33.20;62.10;;;;;;4299980;33;20087;-64
2022/06/19 09:39:47;;;;;;;2.67;1.35;;;33.30;62.00;;;;;;4302540;33;20095;-64
2022/06/19 09:42:39;;;;;;;7.68;1.77;;;33.40;61.50;;;;;;4298237;33;20068;-64
2022/06/19 09:45:26;;;;;;;1.70;1.15;;;33.50;61.40;;;;;;4301925;33;20081;-64
2022/06/19 09:47:57;;;;;;;0.60;0.40;;;33.60;61.40;;;;;;4303888;33;20084;-64
2022/06/19 09:50:53;;;;;;;5.62;2.30;;;33.70;61.00;;;;;;4299641;33;20096;-64
2022/06/19 09:53:32;;;;;;;1.95;1.50;;;33.90;60.90;;;;;;4282068;33;20076;-64
2022/06/19 09:56:05;;;;;;;44.40;2.72;;;34.00;60.10;;;;;;4302223;33;20117;-64
2022/06/19 09:58:47;;;;;;;1.95;1.00;;;34.20;59.60;;;;;;4301105;33;20569;-64
2022/06/19 10:01:13;;;;;;;5.22;2.45;;;34.20;58.50;;;;;;4302192;33;20084;-64
2022/06/19 10:03:44;;;;;;;24.05;2.67;;;34.30;58.80;;;;;;4301717;33;20064;-64
2022/06/19 10:06:18;;;;;;;2.58;1.37;;;34.30;58.00;;;;;;4302054;33;20740;-65
2022/06/19 10:08:53;;;;;;;15.52;1.52;;;34.20;58.40;;;;;;4301224;33;20121;-64
2022/06/19 10:11:22;;;;;;;1.15;0.73;;;34.10;58.90;;;;;;4301019;33;20512;-64
2022/06/19 10:14:12;;;;;;;6.37;1.90;;;34.20;58.50;;;;;;4301369;33;20060;-64
2022/06/19 10:16:45;;;;;;;1.37;1.12;;;34.40;57.60;;;;;;4284308;33;20105;-64
2022/06/19 10:19:17;;;;;;;15.88;2.28;;;34.40;58.00;;;;;;4300359;33;20757;-64
2022/06/19 10:22:25;;;;;;;13.75;2.95;;;34.40;57.80;;;;;;4288850;33;20148;-64
2022/06/19 10:24:57;;;;;;;7.28;1.95;;;34.60;57.70;;;;;;4293168;33;20076;-64
2022/06/19 10:27:44;;;;;;;1.70;0.93;;;34.70;57.50;;;;;;4299768;33;20096;-64
2022/06/19 10:30:15;;;;;;;3.87;1.52;;;34.70;57.70;;;;;;4302737;33;20104;-65
2022/06/19 10:33:20;;;;;;;1.35;0.93;;;34.80;57.40;;;;;;4300438;33;20112;-65
2022/06/19 10:36:00;;;;;;;2.03;1.27;;;34.80;57.40;;;;;;4302593;33;20096;-64
2022/06/19 10:38:34;;;;;;;2.35;1.40;;;35.00;57.10;;;;;;4302982;33;20869;-64
2022/06/19 10:42:00;;;;;;;4.28;1.60;;;35.00;56.70;;;;;;4301907;33;20564;-64
2022/06/19 10:44:54;;;;;;;7.90;2.08;;;35.10;56.90;;;;;;4291268;33;20081;-64
2022/06/19 10:47:49;;;;;;;1.80;1.10;;;35.30;56.50;;;;;;4293882;33;20092;-64
2022/06/19 10:50:36;;;;;;;1.50;1.40;;;35.50;56.30;;;;;;4303865;33;20127;-64
2022/06/19 10:53:25;;;;;;;3.05;1.15;;;35.70;56.10;;;;;;4282768;33;20621;-64
2022/06/19 10:56:16;;;;;;;4.03;2.07;;;35.80;56.30;;;;;;4303056;33;20116;-64
2022/06/19 10:58:42;;;;;;;1.20;0.90;;;36.00;55.90;;;;;;4304768;33;20080;-64
2022/06/19 11:04:06;;;;;;;1.10;0.95;;;36.20;55.70;;;;;;4302784;33;20528;-64
2022/06/19 11:04:12;;;;;;;1.77;1.20;;;36.30;55.80;;;;;;4300666;33;20088;-64
2022/06/19 11:07:00;;;;;;;20.45;1.33;;;36.50;55.30;;;;;;4305164;33;20103;-64
2022/06/19 11:09:30;;;;;;;1.95;1.65;;;36.80;55.60;;;;;;4303159;33;20049;-64
2022/06/19 11:11:57;;;;;;;;;;;37.10;54.40;;;;;;4297079;33;20437;-65
2022/06/19 11:14:34;;;;;;;1.85;1.05;;;37.10;54.50;;;;;;4305050;33;19972;-65
2022/06/19 11:17:05;;;;;;;3.12;1.10;;;37.10;54.40;;;;;;4303352;33;20111;-65
2022/06/19 11:19:35;;;;;;;10.90;1.33;;;37.30;54.40;;;;;;4302386;33;20092;-65
2022/06/19 11:22:01;;;;;;;;;;;37.60;54.60;;;;;;4284128;33;20068;-64
2022/06/19 11:24:29;;;;;;;3.10;2.00;;;37.70;52.80;;;;;;4294744;33;20389;-64
2022/06/19 11:26:56;;;;;;;2.75;1.40;;;37.70;52.90;;;;;;4302032;33;20169;-65
2022/06/19 11:29:23;;;;;;;1.10;0.70;;;37.90;53.20;;;;;;4304098;33;20528;-65
2022/06/19 11:32:11;;;;;;;25.95;1.20;;;38.00;52.50;;;;;;4301019;33;20088;-65
2022/06/19 11:34:48;;;;;;;2.67;1.52;;;38.40;52.30;;;;;;4302708;33;20048;-65
2022/06/19 11:37:28;;;;;;;4.03;1.23;;;38.40;52.30;;;;;;4303514;33;20796;-65
2022/06/19 11:40:14;;;;;;;1.12;1.02;;;38.50;52.10;;;;;;4304224;33;20060;-65
2022/06/19 11:42:59;;;;;;;1.33;1.17;;;38.80;52.10;;;;;;4300658;33;20402;-65
2022/06/19 11:45:29;;;;;;;5.97;2.47;;;39.10;51.80;;;;;;4301405;33;20095;-65
2022/06/19 11:47:57;;;;;;;4.95;2.40;;;38.70;51.80;;;;;;4302135;33;20091;-65
2022/06/19 11:50:37;;;;;;;0.73;0.73;;;38.40;52.60;;;;;;4299842;33;20100;-65
2022/06/19 11:53:14;;;;;;;34.65;1.65;;;38.50;52.60;;;;;;4279222;33;20446;-65
2022/06/19 11:55:44;;;;;;;1.48;1.05;;;38.60;52.80;;;;;;4300413;33;20095;-65
2022/06/19 11:58:17;;;;;;;1.98;1.37;;;38.90;54.80;;;;;;4303515;33;20081;-65
2022/06/19 12:00:45;;;;;;;2.25;1.35;;;39.20;56.40;;;;;;4303564;33;20446;-65
2022/06/19 12:03:21;;;;;;;2.65;1.52;;;39.10;57.80;;;;;;4301678;33;20080;-65
2022/06/19 12:05:55;;;;;;;2.80;1.87;;;38.50;59.00;;;;;;4300670;33;20088;-65
2022/06/19 12:08:29;;;;;;;0.32;0.32;;;38.30;59.30;;;;;;4300857;33;20069;-65
2022/06/19 12:10:58;;;;;;;5.30;2.12;;;38.30;60.00;;;;;;4301341;33;20157;-65
2022/06/19 12:13:30;;;;;;;1.15;0.98;;;38.80;59.40;;;;;;4304329;33;20080;-65
2022/06/19 12:16:02;;;;;;;0.55;0.55;;;39.10;59.60;;;;;;4302755;33;20067;-65
2022/06/19 12:18:29;;;;;;;1.90;1.30;;;38.90;59.40;;;;;;4303035;33;20462;-65
2022/06/19 12:20:58;;;;;;;2.95;1.20;;;38.70;60.10;;;;;;4296798;33;20104;-65
2022/06/19 12:23:27;;;;;;;2.12;1.15;;;38.00;60.60;;;;;;4282687;33;20096;-65
2022/06/19 12:26:02;;;;;;;2.65;1.00;;;37.80;60.00;;;;;;4302596;33;20111;-65
2022/06/19 12:28:53;;;;;;;1.48;1.12;;;38.00;59.90;;;;;;4301873;33;20109;-65
2022/06/19 12:31:24;;;;;;;0.40;0.40;;;38.40;58.60;;;;;;4301197;33;20087;-65
2022/06/19 12:33:55;;;;;;;0.98;0.80;;;38.20;58.60;;;;;;4302975;33;20092;-65
2022/06/19 12:36:27;;;;;;;5.62;1.65;;;38.70;58.40;;;;;;4303798;33;20101;-65
2022/06/19 12:38:53;;;;;;;2.87;1.40;;;38.60;58.40;;;;;;4302327;33;20138;-65
2022/06/19 12:41:30;;;;;;;0.70;0.70;;;38.30;58.50;;;;;;4301519;33;20229;-65
2022/06/19 12:44:16;;;;;;;2.03;1.12;;;38.70;57.70;;;;;;4302357;33;20109;-65
2022/06/19 12:47:09;;;;;;;2.45;1.40;;;38.60;57.60;;;;;;4300840;33;20104;-65
2022/06/19 12:50:06;;;;;;;0.73;0.73;;;38.40;57.60;;;;;;4302983;33;20435;-65
2022/06/19 12:52:54;;;;;;;0.40;0.40;;;38.30;57.20;;;;;;4279547;33;20435;-65
2022/06/19 12:55:31;;;;;;;0.45;0.45;;;38.10;57.10;;;;;;4299442;33;20542;-65
2022/06/19 12:58:25;;;;;;;3.10;0.90;;;37.90;56.90;;;;;;4301889;33;20147;-65
2022/06/19 13:00:56;;;;;;;5.60;2.15;;;37.50;57.90;;;;;;4301739;33;20138;-65
2022/06/19 13:03:36;;;;;;;18.90;1.45;;;37.20;57.70;;;;;;4301283;33;20521;-65
2022/06/19 13:06:31;;;;;;;1.62;1.17;;;37.00;58.00;;;;;;4305249;33;20141;-65
2022/06/19 13:09:22;;;;;;;4.35;0.93;;;36.90;58.00;;;;;;4302830;33;20104;-65
2022/06/19 13:11:58;;;;;;;2.80;1.05;;;37.00;57.80;;;;;;4285408;33;20141;-65